createdAt,value
2023-05-14T00:04:28.972Z,82.52
2023-05-14T00:09:32.641Z,83.44
2023-05-14T00:14:34.725Z,84.00
2023-05-14T00:19:37.192Z,84.82
2023-05-14T00:24:40.591Z,84.40
2023-05-14T00:29:42.664Z,84.37
2023-05-14T00:34:44.938Z,85.43
2023-05-14T00:39:47.979Z,86.72
2023-05-14T00:44:50.000Z,87.91
2023-05-14T00:49:52.108Z,88.04
2023-05-14T00:54:57.109Z,88.89
2023-05-14T00:59:59.451Z,88.63
2023-05-14T01:05:02.020Z,88.71
2023-05-14T01:10:11.969Z,88.83
2023-05-14T01:15:21.339Z,89.31
2023-05-14T01:20:24.220Z,89.44
2023-05-14T01:25:29.103Z,90.18
2023-05-14T01:30:34.908Z,90.48
2023-05-14T01:35:37.628Z,90.23
2023-05-14T01:40:42.163Z,91.27
2023-05-14T01:45:44.265Z,91.07
2023-05-14T01:50:46.479Z,92.51
2023-05-14T01:55:50.201Z,92.23
2023-05-14T02:00:52.255Z,92.91
2023-05-14T02:05:54.867Z,92.34
2023-05-14T02:10:58.505Z,93.06
2023-05-14T02:16:00.360Z,93.46
2023-05-14T02:21:02.615Z,93.91
2023-05-14T02:26:06.157Z,94.03
2023-05-14T02:31:08.266Z,95.02
2023-05-14T02:36:10.242Z,94.55
2023-05-14T02:41:13.721Z,94.40
2023-05-14T02:46:15.922Z,94.97
2023-05-14T02:51:19.740Z,94.80
2023-05-14T02:56:23.187Z,94.69
2023-05-14T03:01:25.340Z,94.84
2023-05-14T03:06:27.925Z,94.68
2023-05-14T03:11:31.432Z,94.96
2023-05-14T03:16:33.497Z,94.81
2023-05-14T03:21:35.553Z,94.50
2023-05-14T03:26:39.285Z,94.61
2023-05-14T03:31:41.083Z,94.29
2023-05-14T03:36:43.205Z,94.11
2023-05-14T03:41:47.229Z,93.17
2023-05-14T03:46:49.256Z,93.03
2023-05-14T03:51:51.374Z,91.89
2023-05-14T03:56:54.941Z,91.97
2023-05-14T04:01:56.920Z,91.76
2023-05-14T04:06:58.999Z,91.26
2023-05-14T04:12:02.319Z,90.82
2023-05-14T04:17:04.927Z,91.17
2023-05-14T04:22:07.297Z,91.39
2023-05-14T04:27:10.714Z,90.58
2023-05-14T04:32:12.844Z,89.82
2023-05-14T04:37:15.061Z,89.13
2023-05-14T04:42:18.633Z,80.65
2023-05-14T04:47:20.423Z,70.80
2023-05-14T04:52:22.768Z,62.98
2023-05-14T04:57:26.335Z,56.20
2023-05-14T05:02:28.345Z,53.63
2023-05-14T05:07:30.738Z,48.88
2023-05-14T05:12:35.347Z,48.18
2023-05-14T05:17:37.817Z,45.75
2023-05-14T05:22:40.183Z,44.61
2023-05-14T05:27:43.583Z,44.77
2023-05-14T05:32:45.909Z,41.10
2023-05-14T05:37:47.953Z,41.11
2023-05-14T05:42:51.573Z,40.87
2023-05-14T05:47:53.804Z,41.81
2023-05-14T05:52:56.027Z,44.04
2023-05-14T05:57:59.630Z,45.62
2023-05-14T06:03:01.746Z,43.50
2023-05-14T06:08:03.978Z,47.56
2023-05-14T06:13:07.421Z,52.26
2023-05-14T06:18:09.556Z,47.71
2023-05-14T06:23:12.030Z,47.00
2023-05-14T06:28:15.141Z,49.90
2023-05-14T06:33:19.321Z,47.97
2023-05-14T06:38:22.684Z,49.22
2023-05-14T06:43:26.551Z,49.90
2023-05-14T06:48:28.666Z,51.15
2023-05-14T06:53:30.746Z,50.21
2023-05-14T06:58:34.421Z,50.74
2023-05-14T07:03:36.757Z,51.86
2023-05-14T07:08:38.479Z,51.17
2023-05-14T07:13:41.914Z,51.66
2023-05-14T07:18:44.588Z,50.56
2023-05-14T07:23:46.953Z,51.15
2023-05-14T07:28:50.575Z,49.83
2023-05-14T07:33:52.805Z,47.70
2023-05-14T07:38:55.351Z,46.51
2023-05-14T07:43:59.033Z,44.68
2023-05-14T07:49:01.442Z,43.53
2023-05-14T07:54:03.785Z,41.95
2023-05-14T07:59:07.720Z,40.84
2023-05-14T08:04:10.009Z,40.52
2023-05-14T08:09:12.169Z,39.95
2023-05-14T08:14:15.328Z,38.37
2023-05-14T08:19:17.362Z,38.79
2023-05-14T08:24:20.287Z,37.62
2023-05-14T08:29:23.490Z,36.59
2023-05-14T08:34:25.349Z,35.77
2023-05-14T08:39:27.071Z,35.82
2023-05-14T08:44:35.420Z,34.48
2023-05-14T08:49:41.006Z,32.63
2023-05-14T08:54:43.367Z,31.04
2023-05-14T08:59:46.819Z,33.05
2023-05-14T09:04:53.813Z,32.61
2023-05-14T09:09:55.842Z,31.47
2023-05-14T09:14:59.316Z,29.19
2023-05-14T09:20:01.500Z,27.20
2023-05-14T09:25:05.963Z,28.31
2023-05-14T09:30:11.603Z,27.33
2023-05-14T09:35:19.119Z,26.73
2023-05-14T09:40:24.412Z,27.46
2023-05-14T09:45:29.634Z,26.48
2023-05-14T09:50:31.740Z,24.94
2023-05-14T09:55:33.998Z,25.92
2023-05-14T10:00:38.400Z,27.55
2023-05-14T10:05:41.454Z,27.50
2023-05-14T10:10:43.164Z,25.57
2023-05-14T10:15:52.195Z,24.78
2023-05-14T10:21:03.825Z,23.57
2023-05-14T10:26:06.752Z,27.61
2023-05-14T10:31:10.963Z,26.87
2023-05-14T10:36:12.857Z,29.75
2023-05-14T10:41:16.071Z,31.33
2023-05-14T10:46:19.230Z,32.54
2023-05-14T10:51:21.275Z,34.58
2023-05-14T10:56:23.373Z,35.80
2023-05-14T11:01:28.334Z,34.87
2023-05-14T11:06:31.060Z,35.98
2023-05-14T11:11:33.345Z,37.19
2023-05-14T11:16:36.584Z,36.97
2023-05-14T11:21:39.577Z,36.05
2023-05-14T11:26:42.017Z,36.49
2023-05-14T11:31:45.572Z,35.32
2023-05-14T11:36:47.740Z,36.27
2023-05-14T11:41:50.025Z,36.51
2023-05-14T11:46:58.113Z,36.45
2023-05-14T11:52:01.317Z,36.13
2023-05-14T11:57:08.562Z,36.18
2023-05-14T12:02:13.376Z,34.45
2023-05-14T12:07:16.059Z,34.56
2023-05-14T12:12:19.506Z,35.23
2023-05-14T12:17:23.350Z,34.81
2023-05-14T12:22:25.121Z,35.65
2023-05-14T12:27:29.593Z,37.18
2023-05-14T12:32:33.583Z,36.23
2023-05-14T12:37:36.642Z,37.26
2023-05-14T12:42:38.604Z,36.14
2023-05-14T12:47:42.403Z,36.17
2023-05-14T12:52:44.577Z,35.35
2023-05-14T12:57:46.501Z,36.08
2023-05-14T13:02:49.973Z,36.04
2023-05-14T13:07:52.905Z,35.57
2023-05-14T13:12:55.244Z,36.07
2023-05-14T13:17:59.584Z,37.10
2023-05-14T13:23:01.473Z,37.80
2023-05-14T13:28:06.895Z,37.52
2023-05-14T13:33:10.113Z,37.50
2023-05-14T13:38:12.365Z,36.64
2023-05-14T13:43:14.136Z,37.36
2023-05-14T13:48:17.554Z,37.08
2023-05-14T13:53:20.267Z,35.00
2023-05-14T13:58:23.094Z,35.13
2023-05-14T14:03:26.542Z,35.00
2023-05-14T14:08:28.629Z,35.70
2023-05-14T14:13:30.965Z,35.56
2023-05-14T14:18:34.330Z,36.20
2023-05-14T14:23:36.489Z,37.02
2023-05-14T14:28:38.485Z,37.34
2023-05-14T14:33:41.603Z,38.04
2023-05-14T14:38:43.589Z,37.58
2023-05-14T14:43:45.615Z,38.05
2023-05-14T14:48:49.211Z,37.59
2023-05-14T14:53:50.999Z,38.12
2023-05-14T14:58:52.852Z,37.13
2023-05-14T15:03:56.083Z,37.58
2023-05-14T15:08:58.672Z,35.95
2023-05-14T15:14:00.455Z,36.75
2023-05-14T15:19:03.551Z,37.37
2023-05-14T15:24:06.289Z,37.22
2023-05-14T15:29:08.386Z,36.90
2023-05-14T15:34:12.001Z,37.43
2023-05-14T15:39:14.535Z,36.04
2023-05-14T15:44:16.993Z,37.44
2023-05-14T15:49:20.104Z,37.51
2023-05-14T15:54:22.810Z,38.24
2023-05-14T15:59:24.545Z,36.55
2023-05-14T16:04:27.690Z,36.63
2023-05-14T16:09:30.072Z,34.77
2023-05-14T16:14:33.549Z,34.36
2023-05-14T16:19:36.784Z,35.69
2023-05-14T16:24:38.482Z,34.39
2023-05-14T16:29:40.823Z,34.14
2023-05-14T16:34:44.080Z,34.33
2023-05-14T16:39:45.938Z,34.46
2023-05-14T16:44:48.419Z,33.83
2023-05-14T16:49:51.593Z,32.74
2023-05-14T16:54:53.720Z,33.77
2023-05-14T16:59:55.520Z,34.32
2023-05-14T17:04:59.659Z,34.58
2023-05-14T17:10:02.080Z,35.15
2023-05-14T17:15:05.690Z,35.54
2023-05-14T17:20:10.731Z,36.44
2023-05-14T17:25:13.072Z,36.04
2023-05-14T17:30:15.532Z,36.75
2023-05-14T17:35:19.288Z,36.34
2023-05-14T17:40:21.537Z,36.78
2023-05-14T17:45:23.623Z,37.43
2023-05-14T17:50:27.158Z,38.30
2023-05-14T17:55:28.908Z,39.02
2023-05-14T18:00:30.681Z,40.02
2023-05-14T18:05:34.655Z,40.28
2023-05-14T18:10:36.792Z,40.99
2023-05-14T18:15:39.029Z,41.62
2023-05-14T18:20:42.583Z,44.11
2023-05-14T18:25:44.698Z,45.02
2023-05-14T18:30:47.309Z,44.94
2023-05-14T18:35:51.055Z,46.15
2023-05-14T18:40:53.142Z,48.36
2023-05-14T18:45:56.032Z,49.97
2023-05-14T18:51:00.360Z,50.78
2023-05-14T18:56:02.229Z,51.88
2023-05-14T19:01:04.587Z,54.52
2023-05-14T19:06:07.905Z,56.12
2023-05-14T19:11:09.679Z,56.89
2023-05-14T19:16:12.163Z,58.38
2023-05-14T19:21:15.965Z,58.09
2023-05-14T19:26:18.372Z,59.38
2023-05-14T19:31:20.462Z,60.16
2023-05-14T19:36:23.944Z,60.63
2023-05-14T19:41:26.172Z,61.65
2023-05-14T19:46:28.424Z,63.44
2023-05-14T19:51:32.008Z,64.02
2023-05-14T19:56:34.187Z,65.01
2023-05-14T20:01:36.468Z,66.10
2023-05-14T20:06:40.122Z,67.10
2023-05-14T20:11:41.840Z,67.85
2023-05-14T20:16:44.175Z,68.38
2023-05-14T20:21:47.794Z,68.87
2023-05-14T20:26:49.962Z,69.67
2023-05-14T20:31:51.880Z,70.58
2023-05-14T20:36:55.368Z,71.11
2023-05-14T20:41:57.543Z,72.02
2023-05-14T20:46:59.918Z,72.19
2023-05-14T20:52:03.654Z,77.43
2023-05-14T20:57:06.026Z,73.97
2023-05-14T21:02:08.378Z,73.94
2023-05-14T21:07:11.623Z,74.04
2023-05-14T21:12:13.920Z,74.66
2023-05-14T21:17:16.078Z,75.81
2023-05-14T21:22:19.592Z,75.78
2023-05-14T21:27:22.327Z,76.00
2023-05-14T21:32:24.692Z,76.26
2023-05-14T21:37:28.665Z,77.42
2023-05-14T21:42:30.785Z,77.17
2023-05-14T21:47:32.842Z,77.88
2023-05-14T21:52:37.243Z,77.91
2023-05-14T21:57:39.329Z,78.81
2023-05-14T22:02:41.401Z,79.13
2023-05-14T22:07:45.168Z,80.18
2023-05-14T22:12:47.373Z,81.36
2023-05-14T22:17:49.583Z,82.24
2023-05-14T22:22:53.149Z,80.80
2023-05-14T22:27:55.405Z,80.95
2023-05-14T22:32:58.256Z,82.02
2023-05-14T22:38:01.589Z,83.39
2023-05-14T22:43:03.728Z,84.04
2023-05-14T22:48:06.454Z,83.86
2023-05-14T22:53:09.789Z,84.08
2023-05-14T22:58:11.838Z,84.45
2023-05-14T23:03:13.923Z,85.53
2023-05-14T23:08:17.456Z,85.35
2023-05-14T23:13:19.741Z,86.70
2023-05-14T23:18:21.657Z,86.92
2023-05-14T23:23:25.609Z,86.95
2023-05-14T23:28:27.434Z,87.16
2023-05-14T23:33:29.844Z,87.72
2023-05-14T23:38:33.008Z,87.92
2023-05-14T23:43:35.159Z,88.31
2023-05-14T23:48:37.521Z,88.43
2023-05-14T23:53:40.960Z,86.85
2023-05-14T23:58:43.185Z,87.96
